Time;durP1;ratioP1;P1;durP2;ratioP2;P2;SDS_P1;SDS_P2;PMS_P1;PMS_P2;Temp;Humidity;BMP_temperature;BMP_pressure;BME280_temperature;BME280_humidity;BME280_pressure;Samples;Min_cycle;Max_cycle;Signal;HPM_P1;HPM_P2
2021/06/08 00:01:19;;;;;;;24.38;12.15;;;;;;;;;;4953596;28;21346;-59
2021/06/08 00:03:50;;;;;;;22.73;11.55;;;;;;;;;;4972666;28;20050;-60
2021/06/08 00:06:18;;;;;;;25.63;12.50;;;;;;;;;;4954596;28;20034;-60
2021/06/08 00:08:47;;;;;;;26.25;12.60;;;;;;;;;;4972591;28;20185;-58
2021/06/08 00:11:14;;;;;;;23.55;11.65;;;;;;;;;;4973118;28;20126;-59
2021/06/08 00:13:39;;;;;;;24.40;12.02;;;;;;;;;;4954918;28;20065;-58
2021/06/08 00:16:07;;;;;;;21.58;12.18;;;;;;;;;;4955102;28;20161;-59
2021/06/08 00:18:37;;;;;;;26.30;13.52;;;;;;;;;;4974398;28;20075;-60
2021/06/08 00:21:07;;;;;;;25.45;12.23;;;;;;;;;;4951888;28;20038;-58
2021/06/08 00:23:32;;;;;;;34.25;14.73;;;;;;;;;;4976710;28;20521;-59
2021/06/08 00:25:58;;;;;;;24.17;12.63;;;;;;;;;;4973084;28;20129;-58
2021/06/08 00:28:24;;;;;;;30.17;12.82;;;;;;;;;;4974965;28;20037;-60
2021/06/08 00:30:51;;;;;;;23.55;11.23;;;;;;;;;;4975418;28;20646;-58
2021/06/08 00:33:17;;;;;;;23.50;12.00;;;;;;;;;;4976387;28;20034;-58
2021/06/08 00:35:44;;;;;;;25.15;12.07;;;;;;;;;;4977077;28;20058;-60
2021/06/08 00:38:10;;;;;;;30.38;13.27;;;;;;;;;;4958479;28;20056;-60
2021/06/08 00:40:43;;;;;;;27.55;12.60;;;;;;;;;;4974256;28;20038;-59
2021/06/08 00:43:08;;;;;;;25.63;13.07;;;;;;;;;;4975804;28;20041;-58
2021/06/08 00:45:34;;;;;;;25.50;13.02;;;;;;;;;;4975251;28;20026;-59
2021/06/08 00:47:59;;;;;;;34.40;12.40;;;;;;;;;;4976838;28;20363;-60
2021/06/08 00:50:25;;;;;;;25.73;13.02;;;;;;;;;;4954296;28;20050;-59
2021/06/08 00:52:55;;;;;;;25.85;12.35;;;;;;;;;;4976200;28;20631;-59
2021/06/08 00:55:23;;;;;;;25.95;12.75;;;;;;;;;;4978102;28;20033;-59
2021/06/08 00:57:49;;;;;;;24.17;13.10;;;;;;;;;;4973624;28;20045;-58
2021/06/08 01:00:18;;;;;;;22.25;12.05;;;;;;;;;;4977526;28;20022;-58
2021/06/08 01:02:43;;;;;;;24.13;12.95;;;;;;;;;;4957808;28;20089;-59
2021/06/08 01:05:09;;;;;;;24.63;11.85;;;;;;;;;;4934451;28;20042;-60
2021/06/08 01:07:40;;;;;;;26.15;12.13;;;;;;;;;;4977200;28;20158;-59
2021/06/08 01:10:07;;;;;;;25.52;12.60;;;;;;;;;;4975584;28;20026;-59
2021/06/08 01:12:33;;;;;;;26.23;12.27;;;;;;;;;;4957274;28;20070;-59
2021/06/08 01:14:59;;;;;;;23.58;11.82;;;;;;;;;;4951094;28;20030;-60
2021/06/08 01:17:27;;;;;;;23.65;11.85;;;;;;;;;;4972818;28;20042;-59
2021/06/08 01:19:56;;;;;;;29.33;12.52;;;;;;;;;;4941562;28;20058;-60
2021/06/08 01:22:24;;;;;;;22.58;10.65;;;;;;;;;;4972062;28;20085;-59
2021/06/08 01:24:55;;;;;;;21.55;11.82;;;;;;;;;;4952047;28;20026;-58
2021/06/08 01:27:23;;;;;;;21.20;10.73;;;;;;;;;;4958559;28;20090;-59
2021/06/08 01:29:50;;;;;;;24.35;12.75;;;;;;;;;;4973272;28;20112;-59
2021/06/08 01:32:15;;;;;;;26.48;13.27;;;;;;;;;;4975555;28;20481;-59
2021/06/08 01:34:41;;;;;;;35.53;14.88;;;;;;;;;;4977260;28;20038;-58
2021/06/08 01:37:11;;;;;;;28.90;13.95;;;;;;;;;;4955775;28;20049;-58
2021/06/08 01:39:37;;;;;;;30.40;13.88;;;;;;;;;;4977102;28;20034;-60
2021/06/08 01:42:03;;;;;;;38.20;17.08;;;;;;;;;;4973449;28;20470;-58
2021/06/08 01:44:34;;;;;;;33.78;14.90;;;;;;;;;;4977158;28;20030;-59
2021/06/08 01:46:59;;;;;;;41.00;16.83;;;;;;;;;;4971098;28;21312;-60
2021/06/08 01:49:25;;;;;;;44.92;19.23;;;;;;;;;;4958002;28;20101;-60
2021/06/08 01:52:08;;;;;;;48.00;18.90;;;;;;;;;;4977405;28;20053;-59
2021/06/08 01:54:56;;;;;;;58.50;21.80;;;;;;;;;;4975641;28;20867;-58
2021/06/08 01:57:21;;;;;;;67.25;22.58;;;;;;;;;;4955477;28;20038;-58
2021/06/08 02:00:08;;;;;;;59.67;20.45;;;;;;;;;;4972645;28;20034;-58
2021/06/08 02:02:45;;;;;;;64.03;21.15;;;;;;;;;;4938106;28;20034;-58
2021/06/08 02:05:29;;;;;;;63.58;23.48;;;;;;;;;;4967503;28;20088;-59
2021/06/08 02:08:13;;;;;;;66.95;22.27;;;;;;;;;;4955510;28;20576;-59
2021/06/08 02:10:52;;;;;;;69.22;23.23;;;;;;;;;;4976079;28;20031;-60
2021/06/08 02:13:30;;;;;;;69.47;23.60;;;;;;;;;;4954130;28;20053;-59
2021/06/08 02:16:04;;;;;;;59.22;21.52;;;;;;;;;;4949289;28;20098;-59
2021/06/08 02:18:30;;;;;;;68.20;22.40;;;;;;;;;;4969042;28;20042;-59
2021/06/08 02:21:01;;;;;;;60.47;22.77;;;;;;;;;;4974976;28;20026;-60
2021/06/08 02:23:33;;;;;;;57.35;21.17;;;;;;;;;;4974720;28;20116;-58
2021/06/08 02:25:59;;;;;;;58.05;20.50;;;;;;;;;;4976195;28;20148;-58
2021/06/08 02:28:27;;;;;;;49.25;19.45;;;;;;;;;;4957153;28;20034;-59
2021/06/08 02:31:03;;;;;;;51.63;20.58;;;;;;;;;;4965153;28;20030;-59
2021/06/08 02:33:34;;;;;;;59.92;21.60;;;;;;;;;;4955327;28;20645;-60
2021/06/08 02:36:06;;;;;;;53.88;19.33;;;;;;;;;;4956933;28;20541;-59
2021/06/08 02:38:35;;;;;;;49.30;19.67;;;;;;;;;;4974503;28;20030;-59
2021/06/08 02:41:02;;;;;;;48.20;19.05;;;;;;;;;;4954624;28;20104;-58
2021/06/08 02:43:31;;;;;;;47.83;18.77;;;;;;;;;;4974897;28;20026;-58
2021/06/08 02:46:02;;;;;;;52.88;19.75;;;;;;;;;;4970483;28;20145;-59
2021/06/08 02:48:30;;;;;;;45.28;17.27;;;;;;;;;;4968993;28;20081;-58
2021/06/08 02:50:59;;;;;;;32.38;15.68;;;;;;;;;;4969458;28;20433;-58
2021/06/08 02:53:30;;;;;;;40.95;16.38;;;;;;;;;;4951672;28;20022;-58
2021/06/08 02:56:01;;;;;;;33.83;15.85;;;;;;;;;;4972829;28;20026;-59
2021/06/08 02:58:27;;;;;;;35.10;15.35;;;;;;;;;;4974832;28;20058;-59
2021/06/08 03:01:08;;;;;;;44.55;16.25;;;;;;;;;;4928588;28;20054;-59
2021/06/08 03:03:39;;;;;;;33.88;16.02;;;;;;;;;;4939906;28;20040;-59
2021/06/08 03:06:13;;;;;;;34.22;15.70;;;;;;;;;;4955224;28;20049;-59
2021/06/08 03:08:49;;;;;;;34.42;14.63;;;;;;;;;;4954349;28;20774;-60
2021/06/08 03:11:21;;;;;;;26.58;13.25;;;;;;;;;;4938705;28;20038;-59
2021/06/08 03:13:47;;;;;;;35.53;14.20;;;;;;;;;;4970649;28;20026;-58
2021/06/08 03:16:14;;;;;;;28.42;13.43;;;;;;;;;;4973909;28;20041;-60
2021/06/08 03:18:43;;;;;;;31.52;13.35;;;;;;;;;;4954222;28;20029;-58
2021/06/08 03:21:14;;;;;;;30.63;15.13;;;;;;;;;;4952735;28;20125;-59
2021/06/08 03:23:49;;;;;;;31.10;13.65;;;;;;;;;;4955376;28;21951;-58
2021/06/08 03:26:15;;;;;;;33.88;14.07;;;;;;;;;;4976904;28;20044;-59
2021/06/08 03:28:41;;;;;;;33.97;15.95;;;;;;;;;;4972442;28;20029;-59
2021/06/08 03:31:09;;;;;;;26.65;13.50;;;;;;;;;;4974197;28;20064;-59
2021/06/08 03:33:39;;;;;;;27.33;13.68;;;;;;;;;;4973705;28;20031;-59
2021/06/08 03:36:10;;;;;;;30.13;13.60;;;;;;;;;;4957783;28;20546;-58
2021/06/08 03:38:37;;;;;;;32.67;14.85;;;;;;;;;;4955297;28;21123;-60
2021/06/08 03:41:10;;;;;;;34.03;14.80;;;;;;;;;;4969981;28;20457;-59
2021/06/08 03:43:39;;;;;;;32.03;14.48;;;;;;;;;;4974909;28;20026;-58
2021/06/08 03:46:04;;;;;;;30.20;13.88;;;;;;;;;;4949323;28;20088;-58
2021/06/08 03:48:34;;;;;;;34.38;14.32;;;;;;;;;;4971826;28;20070;-58
2021/06/08 03:51:02;;;;;;;30.80;14.55;;;;;;;;;;4972454;28;20665;-59
2021/06/08 03:53:27;;;;;;;38.17;16.75;;;;;;;;;;4974210;28;20030;-58
2021/06/08 03:55:53;;;;;;;40.03;16.13;;;;;;;;;;4973529;28;20052;-58
2021/06/08 03:58:23;;;;;;;38.72;18.00;;;;;;;;;;4975272;28;20050;-59
2021/06/08 04:00:55;;;;;;;34.75;15.07;;;;;;;;;;4958448;28;20498;-59
2021/06/08 04:03:23;;;;;;;34.67;14.70;;;;;;;;;;4976854;28;20061;-60
2021/06/08 04:05:49;;;;;;;31.73;14.82;;;;;;;;;;4976378;28;20040;-59
2021/06/08 04:08:14;;;;;;;27.40;13.32;;;;;;;;;;4952801;28;20029;-58
2021/06/08 04:10:41;;;;;;;38.35;16.25;;;;;;;;;;4977460;28;20057;-59
2021/06/08 04:13:09;;;;;;;37.33;16.13;;;;;;;;;;4975692;28;20022;-58
2021/06/08 04:15:37;;;;;;;30.98;14.60;;;;;;;;;;4975299;28;20054;-59
2021/06/08 04:18:10;;;;;;;34.15;15.30;;;;;;;;;;4976536;28;20140;-61
2021/06/08 04:20:38;;;;;;;32.33;13.48;;;;;;;;;;4957290;28;20041;-59
2021/06/08 04:23:06;;;;;;;35.60;15.60;;;;;;;;;;4958163;28;20124;-59
2021/06/08 04:25:31;;;;;;;42.97;18.02;;;;;;;;;;4975515;28;20113;-59
2021/06/08 04:27:59;;;;;;;47.20;20.13;;;;;;;;;;4937064;28;20058;-60
2021/06/08 04:30:25;;;;;;;43.13;18.73;;;;;;;;;;4974276;28;20056;-59
2021/06/08 04:32:53;;;;;;;39.67;17.95;;;;;;;;;;4974023;28;20034;-59
2021/06/08 04:35:19;;;;;;;43.97;19.60;;;;;;;;;;4977427;28;20049;-61
2021/06/08 04:37:45;;;;;;;38.88;17.05;;;;;;;;;;4956689;28;20038;-59
2021/06/08 04:40:11;;;;;;;35.00;16.23;;;;;;;;;;4958777;28;20099;-59
2021/06/08 04:42:47;;;;;;;34.67;15.80;;;;;;;;;;4975734;28;20038;-60
2021/06/08 04:45:14;;;;;;;30.65;14.98;;;;;;;;;;4958315;28;20038;-60
2021/06/08 04:47:42;;;;;;;36.17;16.23;;;;;;;;;;4952385;28;20711;-58
2021/06/08 04:50:09;;;;;;;36.47;17.17;;;;;;;;;;4940714;28;20050;-59
2021/06/08 04:52:37;;;;;;;41.90;18.05;;;;;;;;;;4975842;28;20580;-59
2021/06/08 04:55:04;;;;;;;35.25;16.77;;;;;;;;;;4936794;28;20042;-58
2021/06/08 04:57:33;;;;;;;44.55;19.48;;;;;;;;;;4959301;28;20082;-58
2021/06/08 05:00:01;;;;;;;35.30;16.65;;;;;;;;;;4956952;28;20086;-59
2021/06/08 05:02:52;;;;;;;34.30;16.00;;;;;;;;;;4972048;28;20038;-59
2021/06/08 05:05:22;;;;;;;37.63;17.58;;;;;;;;;;4973608;28;20061;-59
2021/06/08 05:07:51;;;;;;;35.30;17.25;;;;;;;;;;4958140;28;20111;-59
2021/06/08 05:10:21;;;;;;;35.67;17.38;;;;;;;;;;4974865;28;20054;-59
2021/06/08 05:12:50;;;;;;;37.90;17.60;;;;;;;;;;4973716;28;20029;-58
2021/06/08 05:15:16;;;;;;;35.45;16.02;;;;;;;;;;4951734;28;20038;-58
2021/06/08 05:17:43;;;;;;;38.70;17.05;;;;;;;;;;4976719;28;20076;-60
2021/06/08 05:20:11;;;;;;;46.45;19.80;;;;;;;;;;4978264;28;20104;-59
2021/06/08 05:22:41;;;;;;;42.70;19.10;;;;;;;;;;4974078;28;20041;-59
2021/06/08 05:25:09;;;;;;;41.38;19.60;;;;;;;;;;4975437;28;20038;-59
2021/06/08 05:27:36;;;;;;;44.65;19.88;;;;;;;;;;4939339;28;20144;-59
2021/06/08 05:30:03;;;;;;;42.58;18.98;;;;;;;;;;4955346;28;20096;-59
2021/06/08 05:32:32;;;;;;;42.83;17.98;;;;;;;;;;4975559;28;20045;-59
2021/06/08 05:34:59;;;;;;;40.67;18.13;;;;;;;;;;4942385;28;20046;-59
2021/06/08 05:37:30;;;;;;;40.65;18.88;;;;;;;;;;4940976;28;20134;-58
2021/06/08 05:40:02;;;;;;;30.52;15.48;;;;;;;;;;4958802;28;20089;-59
2021/06/08 05:42:30;;;;;;;30.60;14.02;;;;;;;;;;4951901;28;20038;-59
2021/06/08 05:44:58;;;;;;;28.15;14.07;;;;;;;;;;4974070;28;20521;-59
2021/06/08 05:47:26;;;;;;;20.83;12.75;;;;;;;;;;4975294;28;20042;-58
2021/06/08 05:49:51;;;;;;;22.92;11.05;;;;;;;;;;4955937;28;20049;-58
2021/06/08 05:52:19;;;;;;;25.10;13.00;;;;;;;;;;4975035;28;20164;-59
2021/06/08 05:54:45;;;;;;;24.13;12.63;;;;;;;;;;4958711;28;21424;-59
2021/06/08 05:57:11;;;;;;;21.45;11.60;;;;;;;;;;4974594;28;20033;-60
2021/06/08 05:59:41;;;;;;;24.70;11.73;;;;;;;;;;4975689;28;20160;-59
2021/06/08 06:02:07;;;;;;;18.58;10.40;;;;;;;;;;4971564;28;20049;-58
2021/06/08 06:04:32;;;;;;;21.77;9.93;;;;;;;;;;4972250;28;20042;-60
2021/06/08 06:06:58;;;;;;;18.80;9.95;;;;;;;;;;4951501;28;20035;-59
2021/06/08 06:09:25;;;;;;;16.98;10.05;;;;;;;;;;4956874;28;20045;-61
2021/06/08 06:11:53;;;;;;;13.32;8.25;;;;;;;;;;4974566;28;20069;-60
2021/06/08 06:14:24;;;;;;;15.85;8.68;;;;;;;;;;4949942;28;20042;-58
2021/06/08 06:16:56;;;;;;;13.50;8.40;;;;;;;;;;4950463;28;20042;-61
2021/06/08 06:19:24;;;;;;;16.08;7.50;;;;;;;;;;4937496;28;20026;-60
2021/06/08 06:21:51;;;;;;;13.02;6.63;;;;;;;;;;4955725;28;20422;-59
2021/06/08 06:24:20;;;;;;;10.18;6.78;;;;;;;;;;4950825;28;20065;-59
2021/06/08 06:26:50;;;;;;;11.82;6.93;;;;;;;;;;4954624;28;20152;-59
2021/06/08 06:29:18;;;;;;;12.85;7.68;;;;;;;;;;4974287;28;20449;-59
2021/06/08 06:31:47;;;;;;;10.50;7.07;;;;;;;;;;4973698;28;20034;-59
2021/06/08 06:34:15;;;;;;;10.15;6.35;;;;;;;;;;4971265;28;20041;-59
2021/06/08 06:36:46;;;;;;;10.73;7.15;;;;;;;;;;4974644;28;20033;-59
2021/06/08 06:39:19;;;;;;;11.57;6.55;;;;;;;;;;4955218;28;20070;-59
2021/06/08 06:41:48;;;;;;;8.82;5.88;;;;;;;;;;4974814;28;20116;-59
2021/06/08 06:44:16;;;;;;;11.02;7.00;;;;;;;;;;4955319;28;20116;-59
2021/06/08 06:46:42;;;;;;;9.52;6.45;;;;;;;;;;4972282;28;20108;-59
2021/06/08 06:49:10;;;;;;;10.02;5.93;;;;;;;;;;4974793;28;20137;-59
2021/06/08 06:51:36;;;;;;;9.75;6.05;;;;;;;;;;4930526;28;20038;-59
2021/06/08 06:54:04;;;;;;;9.65;6.05;;;;;;;;;;4950507;28;20031;-59
2021/06/08 06:56:32;;;;;;;11.82;5.95;;;;;;;;;;4953813;28;21007;-59
2021/06/08 06:59:03;;;;;;;9.13;6.13;;;;;;;;;;4969651;28;20065;-61
2021/06/08 07:01:28;;;;;;;8.77;5.85;;;;;;;;;;4969858;28;20676;-58
2021/06/08 07:03:57;;;;;;;10.20;6.38;;;;;;;;;;4934371;28;20096;-59
2021/06/08 07:06:23;;;;;;;11.48;6.80;;;;;;;;;;4966874;28;20075;-58
2021/06/08 07:08:49;;;;;;;10.20;5.72;;;;;;;;;;4966977;28;20807;-60
2021/06/08 07:11:17;;;;;;;9.38;6.22;;;;;;;;;;4969880;28;20065;-60
2021/06/08 07:13:43;;;;;;;7.85;5.90;;;;;;;;;;4945564;28;20034;-60
2021/06/08 07:16:12;;;;;;;9.15;5.68;;;;;;;;;;4946974;28;20491;-60
2021/06/08 07:18:41;;;;;;;7.30;5.18;;;;;;;;;;4971773;28;20030;-59
2021/06/08 07:21:06;;;;;;;7.10;5.03;;;;;;;;;;4971849;28;20130;-60
2021/06/08 07:23:32;;;;;;;6.97;5.43;;;;;;;;;;4945437;28;20042;-60
2021/06/08 07:26:00;;;;;;;7.43;5.43;;;;;;;;;;4955475;28;20026;-60
2021/06/08 07:28:31;;;;;;;7.50;4.88;;;;;;;;;;4973781;28;20033;-60
2021/06/08 07:30:59;;;;;;;6.25;5.13;;;;;;;;;;4957942;28;20041;-59
2021/06/08 07:33:47;;;;;;;7.18;5.20;;;;;;;;;;4978056;28;20018;-60
2021/06/08 07:36:27;;;;;;;6.50;5.10;;;;;;;;;;4962351;28;20686;-60
2021/06/08 07:38:56;;;;;;;6.47;4.70;;;;;;;;;;4975645;28;20037;-60
2021/06/08 07:41:30;;;;;;;5.63;4.35;;;;;;;;;;4958766;28;20474;-62
2021/06/08 07:44:01;;;;;;;6.60;5.22;;;;;;;;;;4974632;28;20042;-60
2021/06/08 07:46:29;;;;;;;6.78;5.13;;;;;;;;;;4973219;28;20038;-60
2021/06/08 07:49:00;;;;;;;5.05;4.20;;;;;;;;;;4966723;28;20157;-60
2021/06/08 07:51:31;;;;;;;6.90;4.90;;;;;;;;;;4949546;28;20038;-60
2021/06/08 07:53:59;;;;;;;5.30;4.35;;;;;;;;;;4971083;28;20041;-60
2021/06/08 07:56:29;;;;;;;5.95;4.68;;;;;;;;;;4945947;28;20038;-61
2021/06/08 07:58:57;;;;;;;4.80;4.13;;;;;;;;;;4973355;28;20045;-61
2021/06/08 08:01:26;;;;;;;6.85;5.03;;;;;;;;;;4969653;28;20038;-62
2021/06/08 08:03:56;;;;;;;5.72;4.80;;;;;;;;;;4976302;28;20093;-61
2021/06/08 08:06:25;;;;;;;5.15;4.55;;;;;;;;;;4973658;28;20058;-61
2021/06/08 08:08:53;;;;;;;5.38;4.00;;;;;;;;;;4950654;28;20046;-59
2021/06/08 08:11:18;;;;;;;9.25;4.40;;;;;;;;;;4970772;28;20036;-60
2021/06/08 08:13:48;;;;;;;5.35;4.35;;;;;;;;;;4976467;28;20030;-60
2021/06/08 08:16:14;;;;;;;14.55;4.65;;;;;;;;;;4954224;28;20121;-61
2021/06/08 08:18:41;;;;;;;5.15;4.65;;;;;;;;;;4952881;28;20169;-60
2021/06/08 08:21:09;;;;;;;4.53;3.95;;;;;;;;;;4972638;28;20076;-61
2021/06/08 08:23:37;;;;;;;5.28;3.72;;;;;;;;;;4969155;28;20113;-62
2021/06/08 08:26:11;;;;;;;5.25;3.88;;;;;;;;;;4970567;28;20569;-61
2021/06/08 08:28:40;;;;;;;4.03;3.60;;;;;;;;;;4965035;28;20040;-61
2021/06/08 08:31:12;;;;;;;3.67;3.38;;;;;;;;;;4964896;28;20029;-61
2021/06/08 08:33:38;;;;;;;4.20;3.80;;;;;;;;;;4966596;28;20197;-61
2021/06/08 08:36:04;;;;;;;3.90;3.50;;;;;;;;;;4968164;28;20034;-62
2021/06/08 08:38:52;;;;;;;4.97;3.90;;;;;;;;;;4971265;28;20033;-61
2021/06/08 08:41:21;;;;;;;6.30;4.30;;;;;;;;;;4969790;28;20030;-61
2021/06/08 08:43:50;;;;;;;7.93;4.15;;;;;;;;;;4969690;28;20116;-62
2021/06/08 08:46:21;;;;;;;5.93;4.05;;;;;;;;;;4970431;28;20042;-61
2021/06/08 08:48:53;;;;;;;5.00;3.85;;;;;;;;;;4967957;28;20041;-62
2021/06/08 08:51:19;;;;;;;5.43;4.93;;;;;;;;;;4968924;28;20137;-61
2021/06/08 08:53:45;;;;;;;6.55;5.75;;;;;;;;;;4950434;28;20075;-62
2021/06/08 08:56:11;;;;;;;5.90;4.45;;;;;;;;;;4972358;28;20103;-62
2021/06/08 08:58:37;;;;;;;8.43;5.40;;;;;;;;;;4970403;28;20034;-62
2021/06/08 09:01:03;;;;;;;6.60;5.35;;;;;;;;;;4964209;28;20497;-62
2021/06/08 09:03:29;;;;;;;6.15;5.10;;;;;;;;;;4971112;28;20041;-62
2021/06/08 09:05:59;;;;;;;5.80;4.90;;;;;;;;;;4971246;28;20030;-61
2021/06/08 09:08:27;;;;;;;6.38;5.38;;;;;;;;;;4958106;28;20038;-61
2021/06/08 09:10:59;;;;;;;8.57;5.22;;;;;;;;;;4950880;28;20037;-61
2021/06/08 09:13:27;;;;;;;9.10;5.80;;;;;;;;;;4954015;28;20284;-61
2021/06/08 09:15:53;;;;;;;7.50;5.82;;;;;;;;;;4947451;28;20161;-62
2021/06/08 09:18:22;;;;;;;6.40;5.72;;;;;;;;;;4950765;28;20026;-62
2021/06/08 09:20:51;;;;;;;6.43;5.43;;;;;;;;;;4971247;28;21024;-60
2021/06/08 09:23:20;;;;;;;6.13;5.07;;;;;;;;;;4948186;28;20092;-61
2021/06/08 09:25:49;;;;;;;6.85;4.60;;;;;;;;;;4971391;28;20396;-61
2021/06/08 09:28:27;;;;;;;5.78;4.93;;;;;;;;;;4948343;28;20084;-61
2021/06/08 09:30:56;;;;;;;6.95;4.60;;;;;;;;;;4951484;28;20076;-62
2021/06/08 09:33:24;;;;;;;6.15;5.05;;;;;;;;;;4972361;28;20532;-62
2021/06/08 09:36:01;;;;;;;4.90;4.38;;;;;;;;;;4956006;28;20153;-62
2021/06/08 09:38:40;;;;;;;6.28;4.35;;;;;;;;;;4948431;28;22080;-62
2021/06/08 09:41:16;;;;;;;6.45;5.07;;;;;;;;;;4973052;28;20129;-60
2021/06/08 09:43:50;;;;;;;4.50;4.10;;;;;;;;;;4953911;28;20109;-60
2021/06/08 09:46:19;;;;;;;4.70;4.15;;;;;;;;;;4971868;28;20528;-61
2021/06/08 09:48:53;;;;;;;5.82;4.57;;;;;;;;;;4968863;28;20040;-61
2021/06/08 09:51:45;;;;;;;5.13;3.95;;;;;;;;;;4969129;28;20046;-61
2021/06/08 09:54:23;;;;;;;5.45;3.80;;;;;;;;;;4955770;28;20037;-61
2021/06/08 09:56:48;;;;;;;32.15;8.15;;;;;;;;;;4968517;28;20137;-61
2021/06/08 09:59:13;;;;;;;6.20;4.28;;;;;;;;;;4972955;28;20038;-61
2021/06/08 10:01:39;;;;;;;7.65;4.65;;;;;;;;;;4968095;28;20047;-61
2021/06/08 10:04:05;;;;;;;5.88;4.47;;;;;;;;;;4951731;28;20393;-61
2021/06/08 10:06:37;;;;;;;6.22;4.35;;;;;;;;;;4967916;28;20036;-62
2021/06/08 10:09:04;;;;;;;7.40;4.75;;;;;;;;;;4958318;28;20076;-62
2021/06/08 10:11:34;;;;;;;5.57;4.63;;;;;;;;;;4967614;28;20041;-61
2021/06/08 10:14:08;;;;;;;6.93;3.97;;;;;;;;;;4941843;28;20092;-62
2021/06/08 10:16:37;;;;;;;8.75;6.55;;;;;;;;;;4964818;28;22091;-61
2021/06/08 10:19:06;;;;;;;7.10;4.97;;;;;;;;;;4968051;28;20109;-61
2021/06/08 10:21:47;;;;;;;7.55;4.30;;;;;;;;;;4949474;28;20034;-63
2021/06/08 10:24:20;;;;;;;8.23;3.90;;;;;;;;;;4968793;28;20073;-62
2021/06/08 10:26:50;;;;;;;4.88;3.72;;;;;;;;;;4948083;28;20750;-61
2021/06/08 10:29:28;;;;;;;5.43;3.22;;;;;;;;;;4940510;28;20540;-62
2021/06/08 10:31:57;;;;;;;3.42;3.05;;;;;;;;;;4963710;28;20050;-62
2021/06/08 10:34:24;;;;;;;5.63;2.53;;;;;;;;;;4953181;28;20113;-62
2021/06/08 10:36:49;;;;;;;13.75;4.40;;;;;;;;;;4962411;28;20038;-62
2021/06/08 10:39:20;;;;;;;4.30;3.28;;;;;;;;;;4960355;28;20153;-61
2021/06/08 10:41:46;;;;;;;3.85;2.88;;;;;;;;;;4966239;28;20069;-62
2021/06/08 10:44:21;;;;;;;3.42;3.13;;;;;;;;;;4943194;28;20030;-61
2021/06/08 10:46:53;;;;;;;5.20;3.13;;;;;;;;;;4968006;28;20049;-61
2021/06/08 10:49:36;;;;;;;3.92;2.55;;;;;;;;;;4953535;28;20057;-61
2021/06/08 10:52:08;;;;;;;4.28;2.75;;;;;;;;;;4950683;28;20068;-61
2021/06/08 10:54:41;;;;;;;3.42;2.40;;;;;;;;;;4965511;28;20030;-61
2021/06/08 10:57:17;;;;;;;3.72;2.38;;;;;;;;;;4969577;28;20053;-61
2021/06/08 10:59:47;;;;;;;2.30;2.10;;;;;;;;;;5217233;23;20062;-61
2021/06/08 11:09:27;;;;;;;4.05;1.98;;;;;;;;;;4982748;28;20188;-62
2021/06/08 11:15:32;;;;;;;1.73;1.50;;;;;;;;;;4980976;28;20072;-61
2021/06/08 11:17:58;;;;;;;2.42;1.73;;;;;;;;;;4980283;28;20037;-62
2021/06/08 11:20:32;;;;;;;2.50;1.77;;;;;;;;;;4967005;28;20119;-62
2021/06/08 11:23:05;;;;;;;2.80;1.75;;;;;;;;;;4982773;28;22767;-62
2021/06/08 11:28:46;;;;;;;3.38;2.13;;;;;;;;;;4981455;28;20064;-62
2021/06/08 11:31:14;;;;;;;;;;;;;;;;;;4982644;28;20404;-62
2021/06/08 11:33:39;;;;;;;1.35;1.25;;;;;;;;;;4982562;28;19913;-62
2021/06/08 11:36:22;;;;;;;3.17;1.80;;;;;;;;;;4984132;28;20074;-61
2021/06/08 11:38:47;;;;;;;1.73;1.58;;;;;;;;;;4981659;28;20068;-61
2021/06/08 11:41:14;;;;;;;1.63;1.48;;;;;;;;;;4982497;28;20080;-61
2021/06/08 11:47:33;;;;;;;1.70;1.48;;;;;;;;;;4981894;28;20034;-60
2021/06/08 11:50:03;;;;;;;1.25;1.15;;;;;;;;;;4985007;28;22260;-62
2021/06/08 11:52:31;;;;;;;1.30;1.20;;;;;;;;;;4984260;28;20120;-60
2021/06/08 11:54:58;;;;;;;1.95;1.42;;;;;;;;;;4981383;28;20053;-61
2021/06/08 11:57:34;;;;;;;1.45;1.27;;;;;;;;;;4980470;28;20376;-62
2021/06/08 12:00:03;;;;;;;1.50;1.40;;;;;;;;;;4981029;28;20076;-61
2021/06/08 12:02:54;;;;;;;1.73;1.55;;;;;;;;;;4983574;28;20103;-62
2021/06/08 12:05:25;;;;;;;1.55;1.45;;;;;;;;;;4983149;28;20049;-62
2021/06/08 12:08:01;;;;;;;1.98;1.83;;;;;;;;;;4984055;28;20061;-62
2021/06/08 12:10:34;;;;;;;1.92;1.67;;;;;;;;;;4983560;28;20022;-62
2021/06/08 12:12:59;;;;;;;1.50;1.40;;;;;;;;;;4979563;28;20053;-62
2021/06/08 12:15:37;;;;;;;4.13;1.38;;;;;;;;;;4985254;28;20046;-62
2021/06/08 12:18:04;;;;;;;1.55;1.27;;;;;;;;;;4965701;28;20042;-62
2021/06/08 12:20:30;;;;;;;1.67;1.38;;;;;;;;;;4985760;28;20042;-62
2021/06/08 12:22:56;;;;;;;1.52;1.38;;;;;;;;;;4985799;28;20026;-62
2021/06/08 12:25:24;;;;;;;1.58;1.15;;;;;;;;;;4986819;28;20029;-61
2021/06/08 12:27:52;;;;;;;1.50;1.40;;;;;;;;;;4985759;28;20028;-65
2021/06/08 12:30:27;;;;;;;1.27;1.17;;;;;;;;;;4981363;28;20940;-62
2021/06/08 12:36:27;;;;;;;1.70;1.17;;;;;;;;;;4987242;28;20025;-61
2021/06/08 12:39:19;;;;;;;1.23;1.10;;;;;;;;;;4984691;28;20116;-61
2021/06/08 12:42:11;;;;;;;1.20;1.07;;;;;;;;;;4990767;28;22075;-61
2021/06/08 12:44:59;;;;;;;1.35;1.25;;;;;;;;;;4997362;28;20852;-62
2021/06/08 12:51:51;;;;;;;1.80;1.30;;;;;;;;;;4984003;28;20052;-63
2021/06/08 12:54:56;;;;;;;1.17;1.08;;;;;;;;;;4982409;28;20134;-62
2021/06/08 12:57:43;;;;;;;3.47;1.75;;;;;;;;;;4983910;28;20088;-61
2021/06/08 13:00:59;;;;;;;1.67;1.50;;;;;;;;;;4982255;28;20111;-62
2021/06/08 13:04:15;;;;;;;2.00;1.77;;;;;;;;;;4981214;28;20061;-62
2021/06/08 13:07:00;;;;;;;1.85;1.60;;;;;;;;;;4981569;28;20048;-62
2021/06/08 13:09:47;;;;;;;1.75;1.65;;;;;;;;;;4983208;28;20044;-62
2021/06/08 13:12:48;;;;;;;1.55;1.45;;;;;;;;;;4983865;28;20048;-61
2021/06/08 13:15:37;;;;;;;1.83;1.40;;;;;;;;;;4996019;28;20968;-61
2021/06/08 13:18:46;;;;;;;3.95;2.53;;;;;;;;;;4986042;28;20075;-62
2021/06/08 13:21:33;;;;;;;2.97;2.38;;;;;;;;;;4988954;28;20081;-62
2021/06/08 13:24:20;;;;;;;2.95;2.67;;;;;;;;;;4987360;28;20097;-62
2021/06/08 13:27:31;;;;;;;3.60;2.80;;;;;;;;;;4991610;28;20669;-62
2021/06/08 13:30:17;;;;;;;3.35;3.05;;;;;;;;;;4981404;28;20564;-62
2021/06/08 13:33:05;;;;;;;3.22;2.92;;;;;;;;;;4982970;28;20532;-62
2021/06/08 13:35:53;;;;;;;3.28;2.97;;;;;;;;;;4985476;28;20913;-63
2021/06/08 13:38:37;;;;;;;3.15;2.83;;;;;;;;;;4986525;28;20051;-63
2021/06/08 13:41:30;;;;;;;2.40;2.20;;;;;;;;;;4984622;28;20093;-62
2021/06/08 13:47:41;;;;;;;2.22;1.52;;;;;;;;;;4985185;28;20571;-63
2021/06/08 13:50:27;;;;;;;1.63;1.50;;;;;;;;;;4994612;28;20052;-62
2021/06/08 13:53:20;;;;;;;1.35;1.15;;;;;;;;;;4996678;28;20597;-62
2021/06/08 13:56:34;;;;;;;1.70;1.20;;;;;;;;;;4981464;28;20053;-61
2021/06/08 14:02:48;;;;;;;0.75;0.75;;;;;;;;;;4947759;28;20066;-62
2021/06/08 14:05:33;;;;;;;1.15;0.75;;;;;;;;;;4947284;28;20106;-62
2021/06/08 14:08:19;;;;;;;1.10;0.88;;;;;;;;;;4942935;28;20050;-63
2021/06/08 14:11:04;;;;;;;0.93;0.70;;;;;;;;;;4941358;28;20050;-63
2021/06/08 14:13:57;;;;;;;1.27;0.77;;;;;;;;;;4949349;28;20049;-63
2021/06/08 14:16:41;;;;;;;;;;;;;;;;;;4940508;28;20057;-62
2021/06/08 14:23:00;;;;;;;0.70;0.70;;;;;;;;;;4947131;28;20033;-62
2021/06/08 14:25:45;;;;;;;1.48;1.10;;;;;;;;;;4948671;28;20168;-62
2021/06/08 14:32:04;;;;;;;0.65;0.65;;;;;;;;;;4943955;28;20049;-62
2021/06/08 14:34:51;;;;;;;0.93;0.82;;;;;;;;;;4945427;28;20082;-62
2021/06/08 14:37:17;;;;;;;1.10;1.00;;;;;;;;;;4939654;28;20031;-62
2021/06/08 14:39:48;;;;;;;1.17;0.50;;;;;;;;;;4930017;28;20454;-61
2021/06/08 14:42:24;;;;;;;1.15;0.77;;;;;;;;;;4941410;28;20042;-62
2021/06/08 14:44:52;;;;;;;0.77;0.75;;;;;;;;;;4942554;28;20059;-62
2021/06/08 14:47:25;;;;;;;0.52;0.52;;;;;;;;;;4944625;28;20082;-63
2021/06/08 14:49:51;;;;;;;0.65;0.65;;;;;;;;;;4943721;28;20042;-62
2021/06/08 14:52:19;;;;;;;0.30;0.30;;;;;;;;;;4929391;28;20058;-62
2021/06/08 14:54:45;;;;;;;0.90;0.55;;;;;;;;;;4941890;28;20153;-63
2021/06/08 14:57:20;;;;;;;0.82;0.50;;;;;;;;;;4941527;28;20043;-62
2021/06/08 14:59:45;;;;;;;0.55;0.45;;;;;;;;;;4939389;28;20521;-61
2021/06/08 15:02:11;;;;;;;0.90;0.57;;;;;;;;;;4972557;28;20076;-61
2021/06/08 15:04:37;;;;;;;0.73;0.45;;;;;;;;;;4983493;28;20423;-61
2021/06/08 15:07:05;;;;;;;0.57;0.40;;;;;;;;;;4982025;28;20044;-62
2021/06/08 15:09:33;;;;;;;1.48;0.63;;;;;;;;;;4980920;28;20034;-62
2021/06/08 15:12:05;;;;;;;0.68;0.63;;;;;;;;;;4983983;28;20042;-60
2021/06/08 15:18:09;;;;;;;1.23;0.50;;;;;;;;;;4981597;28;20037;-62
2021/06/08 15:20:36;;;;;;;0.50;0.50;;;;;;;;;;4979077;28;20056;-62
2021/06/08 15:23:04;;;;;;;0.55;0.50;;;;;;;;;;4983517;28;20030;-61
2021/06/08 15:25:30;;;;;;;0.90;0.52;;;;;;;;;;4986198;28;20030;-61
2021/06/08 15:28:06;;;;;;;0.73;0.65;;;;;;;;;;4982365;28;20073;-62
2021/06/08 15:30:35;;;;;;;1.02;0.52;;;;;;;;;;4979333;28;20058;-60
2021/06/08 15:33:15;;;;;;;1.13;0.60;;;;;;;;;;4979365;28;20128;-62
2021/06/08 15:35:41;;;;;;;0.60;0.47;;;;;;;;;;4978879;28;20053;-61
2021/06/08 15:38:07;;;;;;;0.77;0.40;;;;;;;;;;4981678;28;20038;-61
2021/06/08 15:40:35;;;;;;;0.98;0.85;;;;;;;;;;4996860;28;20491;-61